sensor_id;sensor_type;location;lat;lon;timestamp;P1;durP1;ratioP1;P2;durP2;ratioP2
22557;SDS011;11445;53.816;8.902;2023-02-28T00:00:08;8.13;;;4.22;;
22557;SDS011;11445;53.816;8.902;2023-02-28T00:02:37;6.20;;;3.65;;
22557;SDS011;11445;53.816;8.902;2023-02-28T00:05:04;7.97;;;3.70;;
22557;SDS011;11445;53.816;8.902;2023-02-28T00:07:33;8.50;;;3.70;;
22557;SDS011;11445;53.816;8.902;2023-02-28T00:10:00;7.45;;;3.60;;
22557;SDS011;11445;53.816;8.902;2023-02-28T00:12:30;4.93;;;3.28;;
22557;SDS011;11445;53.816;8.902;2023-02-28T00:14:57;6.13;;;3.63;;
22557;SDS011;11445;53.816;8.902;2023-02-28T00:17:24;9.18;;;3.97;;
22557;SDS011;11445;53.816;8.902;2023-02-28T00:19:51;6.57;;;3.55;;
22557;SDS011;11445;53.816;8.902;2023-02-28T00:22:19;9.18;;;3.70;;
22557;SDS011;11445;53.816;8.902;2023-02-28T00:24:47;5.97;;;3.50;;
22557;SDS011;11445;53.816;8.902;2023-02-28T00:27:14;6.55;;;3.20;;
22557;SDS011;11445;53.816;8.902;2023-02-28T00:29:43;10.52;;;4.00;;
22557;SDS011;11445;53.816;8.902;2023-02-28T00:32:10;5.82;;;3.38;;
22557;SDS011;11445;53.816;8.902;2023-02-28T00:34:37;7.43;;;3.42;;
22557;SDS011;11445;53.816;8.902;2023-02-28T00:37:04;9.57;;;3.63;;
22557;SDS011;11445;53.816;8.902;2023-02-28T00:39:33;9.50;;;3.53;;
22557;SDS011;11445;53.816;8.902;2023-02-28T00:42:01;7.00;;;3.30;;
22557;SDS011;11445;53.816;8.902;2023-02-28T00:44:28;7.32;;;3.88;;
22557;SDS011;11445;53.816;8.902;2023-02-28T00:46:57;9.00;;;3.60;;
22557;SDS011;11445;53.816;8.902;2023-02-28T00:49:25;8.10;;;3.42;;
22557;SDS011;11445;53.816;8.902;2023-02-28T00:51:53;6.05;;;3.25;;
22557;SDS011;11445;53.816;8.902;2023-02-28T00:54:21;7.72;;;3.22;;
22557;SDS011;11445;53.816;8.902;2023-02-28T00:56:49;7.85;;;3.42;;
22557;SDS011;11445;53.816;8.902;2023-02-28T00:59:16;14.18;;;4.00;;
22557;SDS011;11445;53.816;8.902;2023-02-28T01:01:45;4.32;;;3.20;;
22557;SDS011;11445;53.816;8.902;2023-02-28T01:04:14;7.25;;;3.22;;
22557;SDS011;11445;53.816;8.902;2023-02-28T01:06:41;6.60;;;3.20;;
22557;SDS011;11445;53.816;8.902;2023-02-28T01:09:09;5.43;;;3.40;;
22557;SDS011;11445;53.816;8.902;2023-02-28T01:11:36;4.75;;;3.22;;
22557;SDS011;11445;53.816;8.902;2023-02-28T01:14:04;10.43;;;3.33;;
22557;SDS011;11445;53.816;8.902;2023-02-28T01:16:31;6.47;;;3.60;;
22557;SDS011;11445;53.816;8.902;2023-02-28T01:18:58;7.32;;;3.60;;
22557;SDS011;11445;53.816;8.902;2023-02-28T01:21:26;6.65;;;3.88;;
22557;SDS011;11445;53.816;8.902;2023-02-28T01:23:56;5.40;;;3.45;;
22557;SDS011;11445;53.816;8.902;2023-02-28T01:26:23;6.03;;;3.53;;
22557;SDS011;11445;53.816;8.902;2023-02-28T01:28:51;9.25;;;3.45;;
22557;SDS011;11445;53.816;8.902;2023-02-28T01:31:19;9.13;;;3.30;;
22557;SDS011;11445;53.816;8.902;2023-02-28T01:33:47;6.35;;;3.25;;
22557;SDS011;11445;53.816;8.902;2023-02-28T01:36:15;7.95;;;3.63;;
22557;SDS011;11445;53.816;8.902;2023-02-28T01:38:45;6.60;;;3.95;;
22557;SDS011;11445;53.816;8.902;2023-02-28T01:41:15;7.38;;;3.70;;
22557;SDS011;11445;53.816;8.902;2023-02-28T01:43:57;8.27;;;3.78;;
22557;SDS011;11445;53.816;8.902;2023-02-28T01:46:29;9.85;;;4.63;;
22557;SDS011;11445;53.816;8.902;2023-02-28T01:48:58;6.15;;;4.13;;
22557;SDS011;11445;53.816;8.902;2023-02-28T01:51:31;8.40;;;4.50;;
22557;SDS011;11445;53.816;8.902;2023-02-28T01:54:05;9.05;;;4.22;;
22557;SDS011;11445;53.816;8.902;2023-02-28T01:56:39;11.52;;;4.25;;
22557;SDS011;11445;53.816;8.902;2023-02-28T01:59:08;8.25;;;3.75;;
22557;SDS011;11445;53.816;8.902;2023-02-28T02:01:36;8.73;;;3.85;;
22557;SDS011;11445;53.816;8.902;2023-02-28T02:04:03;7.88;;;3.80;;
22557;SDS011;11445;53.816;8.902;2023-02-28T02:06:33;11.40;;;4.18;;
22557;SDS011;11445;53.816;8.902;2023-02-28T02:09:04;6.80;;;4.35;;
22557;SDS011;11445;53.816;8.902;2023-02-28T02:11:31;9.88;;;4.38;;
22557;SDS011;11445;53.816;8.902;2023-02-28T02:14:10;8.18;;;4.10;;
22557;SDS011;11445;53.816;8.902;2023-02-28T02:16:57;7.32;;;4.03;;
22557;SDS011;11445;53.816;8.902;2023-02-28T02:25:53;4.68;;;3.95;;
22557;SDS011;11445;53.816;8.902;2023-02-28T02:28:27;6.85;;;4.20;;
22557;SDS011;11445;53.816;8.902;2023-02-28T02:31:29;8.80;;;4.57;;
22557;SDS011;11445;53.816;8.902;2023-02-28T02:37:25;8.73;;;4.38;;
22557;SDS011;11445;53.816;8.902;2023-02-28T02:39:58;7.57;;;4.40;;
22557;SDS011;11445;53.816;8.902;2023-02-28T02:42:31;6.22;;;4.32;;
22557;SDS011;11445;53.816;8.902;2023-02-28T02:45:06;6.85;;;4.57;;
22557;SDS011;11445;53.816;8.902;2023-02-28T02:47:36;9.93;;;4.38;;
22557;SDS011;11445;53.816;8.902;2023-02-28T02:50:05;11.05;;;4.68;;
22557;SDS011;11445;53.816;8.902;2023-02-28T02:52:39;9.77;;;4.97;;
22557;SDS011;11445;53.816;8.902;2023-02-28T02:55:11;8.20;;;4.18;;
22557;SDS011;11445;53.816;8.902;2023-02-28T02:57:41;7.60;;;4.38;;
22557;SDS011;11445;53.816;8.902;2023-02-28T03:00:12;7.53;;;4.07;;
22557;SDS011;11445;53.816;8.902;2023-02-28T03:02:40;6.80;;;4.60;;
22557;SDS011;11445;53.816;8.902;2023-02-28T03:05:16;10.30;;;4.93;;
22557;SDS011;11445;53.816;8.902;2023-02-28T03:07:47;9.23;;;4.80;;
22557;SDS011;11445;53.816;8.902;2023-02-28T03:13:02;10.30;;;4.85;;
22557;SDS011;11445;53.816;8.902;2023-02-28T03:15:58;9.48;;;4.43;;
22557;SDS011;11445;53.816;8.902;2023-02-28T03:18:40;7.05;;;4.70;;
22557;SDS011;11445;53.816;8.902;2023-02-28T03:21:16;7.65;;;4.63;;
22557;SDS011;11445;53.816;8.902;2023-02-28T03:23:54;12.63;;;4.78;;
22557;SDS011;11445;53.816;8.902;2023-02-28T03:26:27;8.82;;;5.05;;
22557;SDS011;11445;53.816;8.902;2023-02-28T03:28:56;9.45;;;5.25;;
22557;SDS011;11445;53.816;8.902;2023-02-28T03:31:31;11.18;;;5.75;;
22557;SDS011;11445;53.816;8.902;2023-02-28T03:34:04;9.73;;;5.30;;
22557;SDS011;11445;53.816;8.902;2023-02-28T03:36:37;6.97;;;4.93;;
22557;SDS011;11445;53.816;8.902;2023-02-28T03:39:11;11.18;;;5.40;;
22557;SDS011;11445;53.816;8.902;2023-02-28T03:41:42;9.45;;;5.35;;
22557;SDS011;11445;53.816;8.902;2023-02-28T03:44:15;10.80;;;5.53;;
22557;SDS011;11445;53.816;8.902;2023-02-28T03:46:48;11.30;;;5.82;;
22557;SDS011;11445;53.816;8.902;2023-02-28T03:49:22;12.98;;;5.50;;
22557;SDS011;11445;53.816;8.902;2023-02-28T03:51:52;10.85;;;5.82;;
22557;SDS011;11445;53.816;8.902;2023-02-28T03:54:27;6.93;;;4.95;;
22557;SDS011;11445;53.816;8.902;2023-02-28T03:56:59;11.10;;;5.28;;
22557;SDS011;11445;53.816;8.902;2023-02-28T03:59:32;7.38;;;4.78;;
22557;SDS011;11445;53.816;8.902;2023-02-28T04:02:03;11.25;;;5.60;;
22557;SDS011;11445;53.816;8.902;2023-02-28T04:04:30;9.25;;;4.85;;
22557;SDS011;11445;53.816;8.902;2023-02-28T04:07:01;8.88;;;5.35;;
22557;SDS011;11445;53.816;8.902;2023-02-28T04:09:31;13.75;;;5.65;;
22557;SDS011;11445;53.816;8.902;2023-02-28T04:11:58;11.52;;;5.40;;
22557;SDS011;11445;53.816;8.902;2023-02-28T04:14:25;6.18;;;5.07;;
22557;SDS011;11445;53.816;8.902;2023-02-28T04:16:52;7.95;;;5.07;;
22557;SDS011;11445;53.816;8.902;2023-02-28T04:19:19;11.10;;;5.38;;
22557;SDS011;11445;53.816;8.902;2023-02-28T04:21:48;19.58;;;6.20;;
22557;SDS011;11445;53.816;8.902;2023-02-28T04:24:16;7.55;;;5.28;;
22557;SDS011;11445;53.816;8.902;2023-02-28T04:26:47;9.13;;;5.95;;
22557;SDS011;11445;53.816;8.902;2023-02-28T04:29:18;14.80;;;5.97;;
22557;SDS011;11445;53.816;8.902;2023-02-28T04:31:46;10.55;;;5.90;;
22557;SDS011;11445;53.816;8.902;2023-02-28T04:34:13;8.88;;;6.07;;
22557;SDS011;11445;53.816;8.902;2023-02-28T04:36:40;11.45;;;5.97;;
22557;SDS011;11445;53.816;8.902;2023-02-28T04:39:08;12.88;;;5.75;;
22557;SDS011;11445;53.816;8.902;2023-02-28T04:41:35;11.93;;;5.70;;
22557;SDS011;11445;53.816;8.902;2023-02-28T04:44:04;9.63;;;5.93;;
22557;SDS011;11445;53.816;8.902;2023-02-28T04:46:31;8.50;;;4.95;;
22557;SDS011;11445;53.816;8.902;2023-02-28T04:48:58;13.02;;;5.85;;
22557;SDS011;11445;53.816;8.902;2023-02-28T04:51:25;11.88;;;6.93;;
22557;SDS011;11445;53.816;8.902;2023-02-28T04:53:53;8.13;;;5.30;;
22557;SDS011;11445;53.816;8.902;2023-02-28T04:56:20;11.38;;;6.32;;
22557;SDS011;11445;53.816;8.902;2023-02-28T04:58:48;10.25;;;5.20;;
22557;SDS011;11445;53.816;8.902;2023-02-28T05:01:18;7.80;;;5.07;;
22557;SDS011;11445;53.816;8.902;2023-02-28T05:03:47;10.77;;;5.97;;
22557;SDS011;11445;53.816;8.902;2023-02-28T05:06:14;10.43;;;6.03;;
22557;SDS011;11445;53.816;8.902;2023-02-28T05:08:42;12.32;;;6.45;;
22557;SDS011;11445;53.816;8.902;2023-02-28T05:11:13;9.35;;;5.80;;
22557;SDS011;11445;53.816;8.902;2023-02-28T05:13:42;11.85;;;6.10;;
22557;SDS011;11445;53.816;8.902;2023-02-28T05:16:10;12.85;;;6.30;;
22557;SDS011;11445;53.816;8.902;2023-02-28T05:18:38;10.32;;;6.78;;
22557;SDS011;11445;53.816;8.902;2023-02-28T05:21:05;9.73;;;6.55;;
22557;SDS011;11445;53.816;8.902;2023-02-28T05:23:44;9.52;;;6.13;;
22557;SDS011;11445;53.816;8.902;2023-02-28T05:26:11;10.30;;;5.63;;
22557;SDS011;11445;53.816;8.902;2023-02-28T05:28:38;7.93;;;5.70;;
22557;SDS011;11445;53.816;8.902;2023-02-28T05:31:05;12.38;;;5.90;;
22557;SDS011;11445;53.816;8.902;2023-02-28T05:33:32;11.40;;;6.22;;
22557;SDS011;11445;53.816;8.902;2023-02-28T05:36:01;12.10;;;6.55;;
22557;SDS011;11445;53.816;8.902;2023-02-28T05:38:28;8.77;;;5.68;;
22557;SDS011;11445;53.816;8.902;2023-02-28T05:40:55;8.38;;;6.03;;
22557;SDS011;11445;53.816;8.902;2023-02-28T05:43:22;8.73;;;6.03;;
22557;SDS011;11445;53.816;8.902;2023-02-28T05:45:50;11.65;;;6.38;;
22557;SDS011;11445;53.816;8.902;2023-02-28T05:48:17;10.27;;;6.57;;
22557;SDS011;11445;53.816;8.902;2023-02-28T05:50:44;8.70;;;6.63;;
22557;SDS011;11445;53.816;8.902;2023-02-28T05:53:13;11.35;;;6.43;;
22557;SDS011;11445;53.816;8.902;2023-02-28T05:55:40;11.40;;;6.82;;
22557;SDS011;11445;53.816;8.902;2023-02-28T05:58:07;9.38;;;6.30;;
22557;SDS011;11445;53.816;8.902;2023-02-28T06:00:35;11.10;;;6.40;;
22557;SDS011;11445;53.816;8.902;2023-02-28T06:03:02;8.63;;;5.95;;
22557;SDS011;11445;53.816;8.902;2023-02-28T06:05:29;10.75;;;6.60;;
22557;SDS011;11445;53.816;8.902;2023-02-28T06:07:56;12.10;;;7.63;;
22557;SDS011;11445;53.816;8.902;2023-02-28T06:10:24;11.23;;;7.13;;
22557;SDS011;11445;53.816;8.902;2023-02-28T06:12:52;11.32;;;7.10;;
22557;SDS011;11445;53.816;8.902;2023-02-28T06:15:19;11.90;;;7.57;;
22557;SDS011;11445;53.816;8.902;2023-02-28T06:17:47;13.38;;;7.90;;
22557;SDS011;11445;53.816;8.902;2023-02-28T06:20:14;11.77;;;7.03;;
22557;SDS011;11445;53.816;8.902;2023-02-28T06:22:41;12.52;;;7.07;;
22557;SDS011;11445;53.816;8.902;2023-02-28T06:25:09;16.23;;;7.22;;
22557;SDS011;11445;53.816;8.902;2023-02-28T06:27:38;14.73;;;7.55;;
22557;SDS011;11445;53.816;8.902;2023-02-28T06:30:05;18.13;;;8.45;;
22557;SDS011;11445;53.816;8.902;2023-02-28T06:32:34;11.32;;;6.75;;
22557;SDS011;11445;53.816;8.902;2023-02-28T06:35:01;12.43;;;7.50;;
22557;SDS011;11445;53.816;8.902;2023-02-28T06:37:28;13.43;;;6.82;;
22557;SDS011;11445;53.816;8.902;2023-02-28T06:39:57;11.45;;;7.05;;
22557;SDS011;11445;53.816;8.902;2023-02-28T06:42:24;16.50;;;7.13;;
22557;SDS011;11445;53.816;8.902;2023-02-28T06:44:55;11.93;;;7.63;;
22557;SDS011;11445;53.816;8.902;2023-02-28T06:47:22;9.38;;;6.38;;
22557;SDS011;11445;53.816;8.902;2023-02-28T06:49:50;9.55;;;6.05;;
22557;SDS011;11445;53.816;8.902;2023-02-28T06:52:17;12.82;;;7.13;;
22557;SDS011;11445;53.816;8.902;2023-02-28T06:54:44;13.27;;;6.82;;
22557;SDS011;11445;53.816;8.902;2023-02-28T06:57:11;15.27;;;7.20;;
22557;SDS011;11445;53.816;8.902;2023-02-28T06:59:38;12.77;;;7.80;;
22557;SDS011;11445;53.816;8.902;2023-02-28T07:02:07;11.68;;;7.32;;
22557;SDS011;11445;53.816;8.902;2023-02-28T07:04:34;12.98;;;7.97;;
22557;SDS011;11445;53.816;8.902;2023-02-28T07:07:01;14.95;;;7.68;;
22557;SDS011;11445;53.816;8.902;2023-02-28T07:09:28;13.75;;;6.72;;
22557;SDS011;11445;53.816;8.902;2023-02-28T07:11:55;15.02;;;7.53;;
22557;SDS011;11445;53.816;8.902;2023-02-28T07:14:22;14.88;;;7.85;;
22557;SDS011;11445;53.816;8.902;2023-02-28T07:16:49;12.73;;;7.78;;
22557;SDS011;11445;53.816;8.902;2023-02-28T07:19:18;12.65;;;6.90;;
22557;SDS011;11445;53.816;8.902;2023-02-28T07:21:45;12.35;;;7.65;;
22557;SDS011;11445;53.816;8.902;2023-02-28T07:24:12;16.58;;;7.63;;
22557;SDS011;11445;53.816;8.902;2023-02-28T07:26:40;9.27;;;7.13;;
22557;SDS011;11445;53.816;8.902;2023-02-28T07:29:08;10.55;;;6.43;;
22557;SDS011;11445;53.816;8.902;2023-02-28T07:31:35;11.60;;;6.53;;
22557;SDS011;11445;53.816;8.902;2023-02-28T07:34:02;8.20;;;6.00;;
22557;SDS011;11445;53.816;8.902;2023-02-28T07:36:31;12.30;;;6.60;;
22557;SDS011;11445;53.816;8.902;2023-02-28T07:38:58;16.45;;;6.75;;
22557;SDS011;11445;53.816;8.902;2023-02-28T07:41:25;12.20;;;6.53;;
22557;SDS011;11445;53.816;8.902;2023-02-28T07:43:54;7.75;;;5.93;;
22557;SDS011;11445;53.816;8.902;2023-02-28T07:46:22;11.75;;;6.45;;
22557;SDS011;11445;53.816;8.902;2023-02-28T07:48:49;12.25;;;6.15;;
22557;SDS011;11445;53.816;8.902;2023-02-28T07:51:16;11.52;;;6.45;;
22557;SDS011;11445;53.816;8.902;2023-02-28T07:53:45;9.57;;;5.93;;
22557;SDS011;11445;53.816;8.902;2023-02-28T07:56:12;7.97;;;5.30;;
22557;SDS011;11445;53.816;8.902;2023-02-28T07:58:39;10.10;;;5.50;;
22557;SDS011;11445;53.816;8.902;2023-02-28T08:01:07;10.13;;;5.70;;
22557;SDS011;11445;53.816;8.902;2023-02-28T08:03:35;8.93;;;5.68;;
22557;SDS011;11445;53.816;8.902;2023-02-28T08:06:02;6.45;;;5.13;;
22557;SDS011;11445;53.816;8.902;2023-02-28T08:08:30;8.27;;;5.80;;
22557;SDS011;11445;53.816;8.902;2023-02-28T08:10:59;13.70;;;6.13;;
22557;SDS011;11445;53.816;8.902;2023-02-28T08:13:27;9.65;;;5.53;;
22557;SDS011;11445;53.816;8.902;2023-02-28T08:15:55;9.63;;;6.15;;
22557;SDS011;11445;53.816;8.902;2023-02-28T08:18:22;10.00;;;6.07;;
22557;SDS011;11445;53.816;8.902;2023-02-28T08:20:50;13.80;;;6.03;;
22557;SDS011;11445;53.816;8.902;2023-02-28T08:23:17;9.73;;;5.63;;
22557;SDS011;11445;53.816;8.902;2023-02-28T08:25:44;10.52;;;5.97;;
22557;SDS011;11445;53.816;8.902;2023-02-28T08:28:20;11.50;;;5.95;;
22557;SDS011;11445;53.816;8.902;2023-02-28T08:30:47;14.73;;;6.10;;
22557;SDS011;11445;53.816;8.902;2023-02-28T08:33:14;9.98;;;6.32;;
22557;SDS011;11445;53.816;8.902;2023-02-28T08:35:41;11.65;;;7.50;;
22557;SDS011;11445;53.816;8.902;2023-02-28T08:38:08;13.15;;;7.43;;
22557;SDS011;11445;53.816;8.902;2023-02-28T08:40:35;12.25;;;7.00;;
22557;SDS011;11445;53.816;8.902;2023-02-28T08:43:02;14.95;;;7.85;;
22557;SDS011;11445;53.816;8.902;2023-02-28T08:45:30;15.30;;;7.50;;
22557;SDS011;11445;53.816;8.902;2023-02-28T08:47:57;13.15;;;8.43;;
22557;SDS011;11445;53.816;8.902;2023-02-28T08:50:25;26.55;;;8.80;;
22557;SDS011;11445;53.816;8.902;2023-02-28T08:52:52;16.27;;;8.23;;
22557;SDS011;11445;53.816;8.902;2023-02-28T08:55:19;13.68;;;8.73;;
22557;SDS011;11445;53.816;8.902;2023-02-28T08:57:46;14.93;;;9.32;;
22557;SDS011;11445;53.816;8.902;2023-02-28T09:00:13;16.67;;;8.95;;
22557;SDS011;11445;53.816;8.902;2023-02-28T09:02:42;19.63;;;9.05;;
22557;SDS011;11445;53.816;8.902;2023-02-28T09:05:09;13.80;;;8.88;;
22557;SDS011;11445;53.816;8.902;2023-02-28T09:07:36;19.38;;;10.45;;
22557;SDS011;11445;53.816;8.902;2023-02-28T09:10:03;16.35;;;10.27;;
22557;SDS011;11445;53.816;8.902;2023-02-28T09:12:32;15.73;;;10.25;;
22557;SDS011;11445;53.816;8.902;2023-02-28T09:15:00;13.40;;;8.82;;
22557;SDS011;11445;53.816;8.902;2023-02-28T09:17:28;18.02;;;9.68;;
22557;SDS011;11445;53.816;8.902;2023-02-28T09:19:56;23.98;;;9.27;;
22557;SDS011;11445;53.816;8.902;2023-02-28T09:22:24;14.93;;;9.68;;
22557;SDS011;11445;53.816;8.902;2023-02-28T09:24:51;17.00;;;9.63;;
22557;SDS011;11445;53.816;8.902;2023-02-28T09:27:18;23.67;;;9.07;;
22557;SDS011;11445;53.816;8.902;2023-02-28T09:29:45;15.75;;;8.35;;
22557;SDS011;11445;53.816;8.902;2023-02-28T09:32:12;16.00;;;8.98;;
22557;SDS011;11445;53.816;8.902;2023-02-28T09:34:39;16.88;;;8.57;;
22557;SDS011;11445;53.816;8.902;2023-02-28T09:37:07;15.70;;;7.78;;
22557;SDS011;11445;53.816;8.902;2023-02-28T09:39:34;11.45;;;6.80;;
22557;SDS011;11445;53.816;8.902;2023-02-28T09:42:02;12.10;;;7.22;;
22557;SDS011;11445;53.816;8.902;2023-02-28T09:44:31;11.18;;;7.20;;
22557;SDS011;11445;53.816;8.902;2023-02-28T09:47:05;10.05;;;6.00;;
22557;SDS011;11445;53.816;8.902;2023-02-28T09:49:38;14.15;;;6.38;;
22557;SDS011;11445;53.816;8.902;2023-02-28T09:52:10;11.00;;;6.32;;
22557;SDS011;11445;53.816;8.902;2023-02-28T09:54:40;13.98;;;7.13;;
22557;SDS011;11445;53.816;8.902;2023-02-28T09:57:08;11.02;;;6.60;;
22557;SDS011;11445;53.816;8.902;2023-02-28T09:59:56;12.10;;;6.03;;
22557;SDS011;11445;53.816;8.902;2023-02-28T10:02:41;10.95;;;6.22;;
22557;SDS011;11445;53.816;8.902;2023-02-28T10:05:20;11.13;;;5.63;;
22557;SDS011;11445;53.816;8.902;2023-02-28T10:07:55;10.15;;;6.00;;
22557;SDS011;11445;53.816;8.902;2023-02-28T10:10:34;6.03;;;4.28;;
22557;SDS011;11445;53.816;8.902;2023-02-28T10:13:06;8.30;;;4.47;;
22557;SDS011;11445;53.816;8.902;2023-02-28T10:15:42;5.45;;;3.15;;
22557;SDS011;11445;53.816;8.902;2023-02-28T10:18:14;3.90;;;2.35;;
22557;SDS011;11445;53.816;8.902;2023-02-28T10:20:47;3.42;;;2.25;;
22557;SDS011;11445;53.816;8.902;2023-02-28T10:23:19;9.27;;;3.38;;
22557;SDS011;11445;53.816;8.902;2023-02-28T10:25:50;4.57;;;2.97;;
22557;SDS011;11445;53.816;8.902;2023-02-28T10:28:21;3.90;;;2.70;;
22557;SDS011;11445;53.816;8.902;2023-02-28T10:30:49;5.88;;;2.70;;
22557;SDS011;11445;53.816;8.902;2023-02-28T10:33:19;4.95;;;2.45;;
22557;SDS011;11445;53.816;8.902;2023-02-28T10:35:49;4.70;;;3.00;;
22557;SDS011;11445;53.816;8.902;2023-02-28T10:38:19;7.25;;;3.83;;
22557;SDS011;11445;53.816;8.902;2023-02-28T10:40:48;5.85;;;2.90;;
22557;SDS011;11445;53.816;8.902;2023-02-28T10:43:19;6.15;;;3.67;;
22557;SDS011;11445;53.816;8.902;2023-02-28T10:45:53;7.00;;;3.38;;
22557;SDS011;11445;53.816;8.902;2023-02-28T10:48:36;5.43;;;3.38;;
22557;SDS011;11445;53.816;8.902;2023-02-28T10:51:04;7.40;;;3.00;;
22557;SDS011;11445;53.816;8.902;2023-02-28T10:53:36;4.45;;;2.63;;
22557;SDS011;11445;53.816;8.902;2023-02-28T10:56:12;5.60;;;3.45;;
22557;SDS011;11445;53.816;8.902;2023-02-28T10:58:46;7.50;;;3.78;;
22557;SDS011;11445;53.816;8.902;2023-02-28T11:01:17;7.43;;;3.25;;
22557;SDS011;11445;53.816;8.902;2023-02-28T11:03:45;6.82;;;3.25;;
22557;SDS011;11445;53.816;8.902;2023-02-28T11:06:15;2.92;;;2.50;;
22557;SDS011;11445;53.816;8.902;2023-02-28T11:08:46;6.18;;;3.40;;
22557;SDS011;11445;53.816;8.902;2023-02-28T11:11:14;13.23;;;6.85;;
22557;SDS011;11445;53.816;8.902;2023-02-28T11:13:44;8.90;;;5.32;;
22557;SDS011;11445;53.816;8.902;2023-02-28T11:16:12;11.02;;;6.40;;
22557;SDS011;11445;53.816;8.902;2023-02-28T11:18:42;13.23;;;6.47;;
22557;SDS011;11445;53.816;8.902;2023-02-28T11:21:16;9.32;;;6.22;;
22557;SDS011;11445;53.816;8.902;2023-02-28T11:23:48;16.23;;;7.90;;
22557;SDS011;11445;53.816;8.902;2023-02-28T11:29:09;10.45;;;6.13;;
22557;SDS011;11445;53.816;8.902;2023-02-28T11:31:39;14.35;;;6.15;;
22557;SDS011;11445;53.816;8.902;2023-02-28T11:36:50;8.63;;;4.90;;
22557;SDS011;11445;53.816;8.902;2023-02-28T11:39:20;10.32;;;5.05;;
22557;SDS011;11445;53.816;8.902;2023-02-28T11:41:57;7.65;;;4.57;;
22557;SDS011;11445;53.816;8.902;2023-02-28T11:44:43;9.07;;;4.47;;
22557;SDS011;11445;53.816;8.902;2023-02-28T11:47:23;7.50;;;4.40;;
22557;SDS011;11445;53.816;8.902;2023-02-28T11:50:03;9.98;;;4.53;;
22557;SDS011;11445;53.816;8.902;2023-02-28T11:52:44;8.40;;;4.10;;
22557;SDS011;11445;53.816;8.902;2023-02-28T11:55:19;5.03;;;4.05;;
22557;SDS011;11445;53.816;8.902;2023-02-28T11:57:56;10.80;;;4.78;;
22557;SDS011;11445;53.816;8.902;2023-02-28T12:00:49;8.50;;;4.30;;
22557;SDS011;11445;53.816;8.902;2023-02-28T12:03:31;6.68;;;3.72;;
22557;SDS011;11445;53.816;8.902;2023-02-28T12:06:09;8.77;;;4.50;;
22557;SDS011;11445;53.816;8.902;2023-02-28T12:08:47;10.90;;;5.00;;
22557;SDS011;11445;53.816;8.902;2023-02-28T12:11:27;8.77;;;5.03;;
22557;SDS011;11445;53.816;8.902;2023-02-28T12:14:14;7.57;;;4.53;;
22557;SDS011;11445;53.816;8.902;2023-02-28T12:17:04;9.90;;;4.60;;
22557;SDS011;11445;53.816;8.902;2023-02-28T12:19:44;6.95;;;3.80;;
22557;SDS011;11445;53.816;8.902;2023-02-28T12:22:27;6.03;;;3.92;;
22557;SDS011;11445;53.816;8.902;2023-02-28T12:28:03;8.45;;;4.30;;
22557;SDS011;11445;53.816;8.902;2023-02-28T12:30:32;5.07;;;4.13;;
22557;SDS011;11445;53.816;8.902;2023-02-28T12:33:03;5.97;;;3.78;;
22557;SDS011;11445;53.816;8.902;2023-02-28T12:35:32;9.00;;;3.90;;
22557;SDS011;11445;53.816;8.902;2023-02-28T12:38:04;6.68;;;3.63;;
22557;SDS011;11445;53.816;8.902;2023-02-28T12:40:41;5.63;;;3.85;;
22557;SDS011;11445;53.816;8.902;2023-02-28T12:43:13;5.65;;;3.83;;
22557;SDS011;11445;53.816;8.902;2023-02-28T12:45:43;4.25;;;3.53;;
22557;SDS011;11445;53.816;8.902;2023-02-28T12:48:15;5.70;;;3.72;;
22557;SDS011;11445;53.816;8.902;2023-02-28T12:50:46;5.53;;;3.78;;
22557;SDS011;11445;53.816;8.902;2023-02-28T12:53:15;8.15;;;3.90;;
22557;SDS011;11445;53.816;8.902;2023-02-28T12:58:20;4.93;;;3.45;;
22557;SDS011;11445;53.816;8.902;2023-02-28T13:01:00;9.50;;;3.50;;
22557;SDS011;11445;53.816;8.902;2023-02-28T13:03:50;5.13;;;3.35;;
22557;SDS011;11445;53.816;8.902;2023-02-28T13:09:25;5.78;;;3.72;;
22557;SDS011;11445;53.816;8.902;2023-02-28T13:11:54;6.70;;;3.42;;
22557;SDS011;11445;53.816;8.902;2023-02-28T13:14:28;6.22;;;3.53;;
22557;SDS011;11445;53.816;8.902;2023-02-28T13:16:57;8.05;;;2.97;;
22557;SDS011;11445;53.816;8.902;2023-02-28T13:19:30;7.07;;;2.95;;
22557;SDS011;11445;53.816;8.902;2023-02-28T13:21:59;7.95;;;3.45;;
22557;SDS011;11445;53.816;8.902;2023-02-28T13:24:48;8.68;;;2.95;;
22557;SDS011;11445;53.816;8.902;2023-02-28T13:27:21;5.38;;;3.35;;
22557;SDS011;11445;53.816;8.902;2023-02-28T13:29:52;7.28;;;3.17;;
22557;SDS011;11445;53.816;8.902;2023-02-28T13:32:30;6.00;;;2.95;;
22557;SDS011;11445;53.816;8.902;2023-02-28T13:35:15;7.97;;;3.47;;
22557;SDS011;11445;53.816;8.902;2023-02-28T13:38:12;8.10;;;3.33;;
22557;SDS011;11445;53.816;8.902;2023-02-28T13:40:44;7.18;;;3.00;;
22557;SDS011;11445;53.816;8.902;2023-02-28T13:43:11;5.72;;;3.67;;
22557;SDS011;11445;53.816;8.902;2023-02-28T13:45:54;4.80;;;3.55;;
22557;SDS011;11445;53.816;8.902;2023-02-28T13:48:36;7.03;;;3.85;;
22557;SDS011;11445;53.816;8.902;2023-02-28T13:51:27;6.13;;;3.47;;
22557;SDS011;11445;53.816;8.902;2023-02-28T13:54:07;4.90;;;3.17;;
22557;SDS011;11445;53.816;8.902;2023-02-28T13:56:48;4.90;;;3.17;;
22557;SDS011;11445;53.816;8.902;2023-02-28T13:59:25;4.82;;;3.40;;
22557;SDS011;11445;53.816;8.902;2023-02-28T14:05:15;3.95;;;3.28;;
22557;SDS011;11445;53.816;8.902;2023-02-28T14:07:45;5.57;;;3.63;;
22557;SDS011;11445;53.816;8.902;2023-02-28T14:10:22;8.18;;;3.47;;
22557;SDS011;11445;53.816;8.902;2023-02-28T14:12:55;5.72;;;3.10;;
22557;SDS011;11445;53.816;8.902;2023-02-28T14:15:34;4.85;;;2.92;;
22557;SDS011;11445;53.816;8.902;2023-02-28T14:18:15;7.55;;;3.72;;
22557;SDS011;11445;53.816;8.902;2023-02-28T14:20:47;3.83;;;3.08;;
22557;SDS011;11445;53.816;8.902;2023-02-28T14:23:22;6.20;;;3.05;;
22557;SDS011;11445;53.816;8.902;2023-02-28T14:26:01;5.32;;;3.10;;
22557;SDS011;11445;53.816;8.902;2023-02-28T14:28:42;4.95;;;2.83;;
22557;SDS011;11445;53.816;8.902;2023-02-28T14:31:18;5.95;;;2.75;;
22557;SDS011;11445;53.816;8.902;2023-02-28T14:36:53;4.03;;;2.80;;
22557;SDS011;11445;53.816;8.902;2023-02-28T14:39:24;3.85;;;2.58;;
22557;SDS011;11445;53.816;8.902;2023-02-28T14:41:56;8.27;;;2.80;;
22557;SDS011;11445;53.816;8.902;2023-02-28T14:44:28;5.40;;;2.33;;
22557;SDS011;11445;53.816;8.902;2023-02-28T14:46:56;4.00;;;2.60;;
22557;SDS011;11445;53.816;8.902;2023-02-28T14:49:30;4.25;;;2.40;;
22557;SDS011;11445;53.816;8.902;2023-02-28T14:52:06;2.60;;;2.08;;
22557;SDS011;11445;53.816;8.902;2023-02-28T14:54:39;5.97;;;2.47;;
22557;SDS011;11445;53.816;8.902;2023-02-28T14:57:18;4.07;;;2.38;;
22557;SDS011;11445;53.816;8.902;2023-02-28T14:59:56;5.93;;;2.90;;
22557;SDS011;11445;53.816;8.902;2023-02-28T15:02:25;4.85;;;2.60;;
22557;SDS011;11445;53.816;8.902;2023-02-28T15:04:56;3.22;;;2.30;;
22557;SDS011;11445;53.816;8.902;2023-02-28T15:07:26;10.32;;;2.75;;
22557;SDS011;11445;53.816;8.902;2023-02-28T15:10:13;3.55;;;2.28;;
22557;SDS011;11445;53.816;8.902;2023-02-28T15:12:45;6.07;;;2.75;;
22557;SDS011;11445;53.816;8.902;2023-02-28T15:15:19;3.28;;;2.53;;
22557;SDS011;11445;53.816;8.902;2023-02-28T15:17:49;4.50;;;2.67;;
22557;SDS011;11445;53.816;8.902;2023-02-28T15:20:19;2.27;;;2.03;;
22557;SDS011;11445;53.816;8.902;2023-02-28T15:22:49;2.53;;;2.30;;
22557;SDS011;11445;53.816;8.902;2023-02-28T15:25:19;3.05;;;2.00;;
22557;SDS011;11445;53.816;8.902;2023-02-28T15:27:49;5.05;;;2.33;;
22557;SDS011;11445;53.816;8.902;2023-02-28T15:30:20;2.75;;;2.20;;
22557;SDS011;11445;53.816;8.902;2023-02-28T15:33:06;3.25;;;1.88;;
22557;SDS011;11445;53.816;8.902;2023-02-28T15:35:44;3.23;;;2.00;;
22557;SDS011;11445;53.816;8.902;2023-02-28T15:38:17;2.55;;;1.67;;